Time;durP1;ratioP1;P1;durP2;ratioP2;P2;SDS_P1;SDS_P2;PMS_P1;PMS_P2;Temp;Humidity;BMP_temperature;BMP_pressure;BME280_temperature;BME280_humidity;BME280_pressure;Samples;Min_cycle;Max_cycle;Signal;HPM_P1;HPM_P2
2021/10/09 00:00:36;;;;;;;16.49;7.56;;;;;;;;;;360485;147;865583;-59
2021/10/09 00:01:38;;;;;;;19.16;7.33;;;;;;;;;;365170;146;865866;-59
2021/10/09 00:02:40;;;;;;;14.47;7.42;;;;;;;;;;362570;145;858785;-60
2021/10/09 00:03:41;;;;;;;15.93;7.66;;;;;;;;;;363597;145;857826;-59
2021/10/09 00:04:43;;;;;;;16.39;7.51;;;;;;;;;;360009;147;857493;-59
2021/10/09 00:17:13;;;;;;;12.61;7.23;;;;;;;5.12;48.54;101740.28;370275;142;882263;-59
2021/10/09 00:18:13;;;;;;;16.23;6.79;;;;;;;5.03;48.53;101737.31;361890;146;857379;-59
2021/10/09 00:19:15;;;;;;;14.93;7.50;;;;;;;5.03;48.61;101739.88;361671;147;865076;-59
2021/10/09 00:20:18;;;;;;;15.95;7.60;;;;;;;5.04;48.69;101733.93;361982;147;865669;-59
2021/10/09 00:21:20;;;;;;;15.75;8.19;;;;;;;5.04;48.62;101739.92;362340;146;859941;-59
2021/10/09 00:22:22;;;;;;;15.26;7.59;;;;;;;5.05;48.77;101738.25;361790;147;865692;-59
2021/10/09 00:23:24;;;;;;;16.47;7.77;;;;;;;5.05;48.57;101736.55;361738;147;857523;-61
2021/10/09 00:24:25;;;;;;;15.94;7.42;;;;;;;5.08;48.58;101738.39;362656;146;859069;-59
2021/10/09 00:25:27;;;;;;;14.71;7.98;;;;;;;;;;361431;146;866108;-59
2021/10/09 00:26:29;;;;;;;18.35;7.61;;;;;;;;;;363406;147;865037;-59
2021/10/09 00:27:30;;;;;;;15.30;7.61;;;;;;;;;;360975;147;859990;-59
2021/10/09 00:28:32;;;;;;;14.36;7.62;;;;;;;;;;362190;146;860300;-59
2021/10/09 00:29:34;;;;;;;14.49;7.49;;;;;;;;;;362949;147;857447;-59
2021/10/09 00:30:36;;;;;;;15.69;8.01;;;;;;;;;;360836;147;857413;-60
2021/10/09 00:31:38;;;;;;;16.56;8.37;;;;;;;;;;361850;146;857324;-59
2021/10/09 00:32:39;;;;;;;20.79;8.16;;;;;;;;;;362884;146;857446;-60
2021/10/09 00:33:41;;;;;;;15.84;8.31;;;;;;;;;;362496;147;858663;-60
2021/10/09 00:34:42;;;;;;;14.17;8.07;;;;;;;;;;361408;146;859619;-59
2021/10/09 00:35:44;;;;;;;15.16;7.26;;;;;;;;;;356583;147;860841;-60
2021/10/09 00:36:46;;;;;;;13.32;7.34;;;;;;;;;;356046;150;857441;-59
2021/10/09 00:37:48;;;;;;;12.09;7.54;;;;;;;;;;357633;149;863725;-59
2021/10/09 00:38:49;;;;;;;13.31;7.62;;;;;;;;;;355643;150;857191;-59
2021/10/09 00:39:51;;;;;;;15.55;8.28;;;;;;;;;;356456;149;865267;-60
2021/10/09 00:40:54;;;;;;;13.28;7.38;;;;;;;;;;353246;149;865930;-59
2021/10/09 00:41:55;;;;;;;14.08;7.96;;;;;;;;;;355395;147;857361;-59
2021/10/09 00:42:57;;;;;;;13.69;7.01;;;;;;;;;;356741;149;860459;-59
2021/10/09 00:44:10;;;;;;;12.76;7.52;;;;;;;;;;357657;150;858952;-60
2021/10/09 00:45:12;;;;;;;11.19;7.53;;;;;;;;;;354949;149;857442;-60
2021/10/09 00:46:14;;;;;;;11.34;7.13;;;;;;;;;;354498;149;857943;-60
2021/10/09 00:57:03;;;;;;;16.81;7.28;;;;;;;4.89;49.60;101716.16;371910;142;880540;-59
2021/10/09 00:58:04;;;;;;;12.73;7.25;;;;;;;;;;365925;144;859817;-60
2021/10/09 00:59:07;;;;;;;12.16;6.99;;;;;;;;;;369439;145;857773;-60
2021/10/09 01:00:10;;;;;;;15.14;7.89;;;;;;;;;;362931;144;865154;-59
2021/10/09 01:01:11;;;;;;;15.48;7.88;;;;;;;;;;364082;145;858236;-59
2021/10/09 01:02:13;;;;;;;16.51;8.04;;;;;;;;;;361483;145;861446;-59
2021/10/09 01:03:15;;;;;;;13.64;7.78;;;;;;;;;;362981;145;861991;-60
2021/10/09 01:04:16;;;;;;;16.71;7.66;;;;;;;;;;364581;145;865249;-59
2021/10/09 01:05:18;;;;;;;14.12;7.40;;;;;;;;;;360995;144;864915;-58
2021/10/09 01:06:20;;;;;;;15.14;7.90;;;;;;;;;;361843;144;865456;-59
2021/10/09 01:07:21;;;;;;;20.55;8.69;;;;;;;;;;363701;144;857260;-61
2021/10/09 01:17:35;;;;;;;12.22;7.40;;;;;;;4.96;50.17;101706.23;369272;142;881534;-59
2021/10/09 01:18:36;;;;;;;16.04;7.57;;;;;;;4.87;50.16;101710.97;362897;144;857783;-59
2021/10/09 01:19:39;;;;;;;12.09;7.55;;;;;;;4.87;50.16;101710.97;361614;146;857342;-59
2021/10/09 01:20:45;;;;;;;13.84;7.78;;;;;;;4.87;49.89;101710.08;363423;146;864987;-59
2021/10/09 01:21:48;;;;;;;16.52;7.44;;;;;;;4.82;49.80;101707.32;362191;145;857976;-60
2021/10/09 01:22:50;;;;;;;14.35;7.67;;;;;;;4.79;49.88;101713.19;361721;145;860094;-60
2021/10/09 01:36:58;;;;;;;12.63;8.15;;;;;;;4.60;50.28;101703.77;379491;139;872017;-61
2021/10/09 01:38:00;;;;;;;14.89;8.25;;;;;;;4.48;50.46;101704.12;367604;144;857316;-61
2021/10/09 01:39:03;;;;;;;15.93;7.94;;;;;;;4.46;50.49;101713.43;370672;142;859703;-61
2021/10/09 01:40:06;;;;;;;16.81;8.84;;;;;;;4.46;50.60;101710.87;368974;143;866077;-62
2021/10/09 01:41:09;;;;;;;16.07;7.96;;;;;;;4.48;50.60;101704.12;370842;141;857890;-62
2021/10/09 01:42:10;;;;;;;16.69;8.57;;;;;;;4.47;50.66;101702.36;370177;144;859407;-62
2021/10/09 01:43:13;;;;;;;17.71;8.48;;;;;;;4.47;50.77;101706.59;367854;142;859914;-62
2021/10/09 01:44:16;;;;;;;16.00;8.61;;;;;;;4.45;50.81;101703.09;369256;143;864313;-61
2021/10/09 01:45:17;;;;;;;18.45;9.06;;;;;;;4.46;50.74;101700.61;368319;141;858285;-62
2021/10/09 01:46:20;;;;;;;15.82;8.32;;;;;;;4.44;50.79;101698.77;367940;141;858741;-62
2021/10/09 01:47:22;;;;;;;16.34;8.61;;;;;;;4.45;50.85;101703.09;369390;144;857450;-61
2021/10/09 01:48:37;;;;;;;17.88;7.78;;;;;;;4.46;51.23;101698.05;368980;143;859073;-61
2021/10/09 01:49:39;;;;;;;16.00;7.73;;;;;;;4.50;51.64;101706.73;367728;144;865208;-62
2021/10/09 01:50:41;;;;;;;15.42;6.89;;;;;;;4.49;52.11;101708.44;369717;142;859385;-61
2021/10/09 01:51:43;;;;;;;13.40;7.34;;;;;;;4.51;52.76;101705.92;371555;144;859117;-62
2021/10/09 01:52:45;;;;;;;13.47;7.94;;;;;;;4.49;52.69;101708.44;366338;144;857392;-62
2021/10/09 01:53:46;;;;;;;15.21;7.53;;;;;;;;;;371598;144;857769;-61
2021/10/09 01:54:48;;;;;;;14.31;7.75;;;;;;;;;;368572;143;857453;-61
2021/10/09 01:55:50;;;;;;;11.97;7.21;;;;;;;;;;367007;143;857594;-61
2021/10/09 01:56:53;;;;;;;15.27;7.47;;;;;;;;;;371624;144;857362;-61
2021/10/09 01:57:54;;;;;;;13.66;7.54;;;;;;;;;;371147;143;865537;-61
2021/10/09 01:58:56;;;;;;;12.94;7.14;;;;;;;;;;370221;143;865629;-61
2021/10/09 01:59:57;;;;;;;16.92;7.40;;;;;;;;;;367302;144;857352;-61
2021/10/09 02:00:59;;;;;;;12.47;7.51;;;;;;;;;;368874;144;864979;-61
2021/10/09 02:02:01;;;;;;;13.74;6.61;;;;;;;;;;371124;143;859352;-61
2021/10/09 02:03:04;;;;;;;13.45;7.07;;;;;;;;;;370751;143;857859;-61
2021/10/09 02:04:06;;;;;;;13.81;7.18;;;;;;;;;;367635;144;860420;-62
2021/10/09 02:05:08;;;;;;;13.79;7.46;;;;;;;;;;370051;143;859047;-62
2021/10/09 02:06:10;;;;;;;18.13;7.65;;;;;;;;;;370311;143;865160;-61
2021/10/09 02:07:18;;;;;;;15.17;8.01;;;;;;;;;;371333;144;859229;-61
2021/10/09 02:08:18;;;;;;;16.04;8.61;;;;;;;;;;370836;144;858278;-61
2021/10/09 02:09:19;;;;;;;12.17;7.71;;;;;;;;;;367987;143;859638;-61
2021/10/09 02:10:22;;;;;;;13.65;7.54;;;;;;;;;;367704;143;865076;-61
2021/10/09 02:11:27;;;;;;;12.35;7.84;;;;;;;;;;367447;144;857189;-61
2021/10/09 02:12:29;;;;;;;13.10;8.07;;;;;;;;;;369571;143;865012;-61
2021/10/09 02:14:42;;;;;;;14.67;7.38;;;;;;;;;;371594;144;857472;-61
2021/10/09 02:15:47;;;;;;;14.98;7.60;;;;;;;;;;366745;144;866927;-61
2021/10/09 02:19:04;;;;;;;15.88;8.15;;;;;;;;;;370205;144;857327;-62
2021/10/09 02:25:28;;;;;;;16.12;8.51;;;;;;;;;;358063;147;866921;-61
2021/10/09 02:26:16;;;;;;;15.78;8.81;;;;;;;;;;350118;148;857336;-61
2021/10/09 02:27:18;;;;;;;13.67;8.24;;;;;;;;;;354740;147;857297;-61
2021/10/09 02:28:20;;;;;;;16.09;7.64;;;;;;;;;;367095;144;865712;-61
2021/10/09 02:29:22;;;;;;;17.84;8.49;;;;;;;;;;370850;144;864947;-61
2021/10/09 02:30:24;;;;;;;16.81;8.70;;;;;;;;;;370351;144;858710;-61
2021/10/09 02:31:26;;;;;;;17.81;8.58;;;;;;;;;;371901;143;857164;-61
2021/10/09 02:32:28;;;;;;;19.02;8.69;;;;;;;;;;368975;144;859437;-61
2021/10/09 02:33:30;;;;;;;15.04;8.52;;;;;;;;;;371956;144;857256;-61
2021/10/09 02:34:31;;;;;;;20.26;9.49;;;;;;;;;;369157;143;866985;-61
2021/10/09 02:35:33;;;;;;;15.21;8.71;;;;;;;;;;371889;144;858394;-61
2021/10/09 02:36:36;;;;;;;17.17;8.39;;;;;;;;;;370029;144;859633;-62
2021/10/09 02:37:38;;;;;;;14.63;7.91;;;;;;;;;;367733;144;857206;-62
2021/10/09 02:38:40;;;;;;;18.03;8.56;;;;;;;;;;366118;144;866267;-62
2021/10/09 02:39:41;;;;;;;14.06;8.01;;;;;;;;;;366797;145;857276;-62
2021/10/09 02:40:43;;;;;;;17.60;8.58;;;;;;;;;;367966;144;859158;-62
2021/10/09 02:41:45;;;;;;;14.10;8.15;;;;;;;;;;367385;144;857922;-63
2021/10/09 02:42:47;;;;;;;16.78;8.05;;;;;;;;;;365172;145;856864;-62
2021/10/09 02:43:48;;;;;;;15.39;8.97;;;;;;;;;;369157;145;858340;-62
2021/10/09 02:44:50;;;;;;;17.56;9.43;;;;;;;;;;366009;145;862501;-62
2021/10/09 02:45:51;;;;;;;22.93;8.42;;;;;;;;;;367663;144;865847;-62
2021/10/09 02:46:53;;;;;;;18.16;8.56;;;;;;;;;;366806;145;858517;-62
2021/10/09 02:48:02;;;;;;;14.44;8.49;;;;;;;;;;369294;145;865645;-62
2021/10/09 02:49:03;;;;;;;16.68;8.91;;;;;;;;;;367353;144;858972;-62
2021/10/09 02:50:10;;;;;;;14.69;7.94;;;;;;;;;;369281;145;857488;-61
2021/10/09 02:51:09;;;;;;;14.64;8.48;;;;;;;;;;366484;145;857476;-62
2021/10/09 02:52:10;;;;;;;13.78;8.51;;;;;;;;;;368163;144;858758;-62
2021/10/09 02:53:12;;;;;;;13.34;8.33;;;;;;;;;;369370;144;865281;-61
2021/10/09 02:54:13;;;;;;;16.22;8.62;;;;;;;;;;364683;145;864700;-62
2021/10/09 02:55:18;;;;;;;18.13;8.94;;;;;;;;;;367362;145;859778;-62
2021/10/09 02:56:19;;;;;;;13.38;8.04;;;;;;;;;;369641;144;865184;-62
2021/10/09 02:57:21;;;;;;;16.29;8.66;;;;;;;;;;367261;145;858128;-61
2021/10/09 02:58:23;;;;;;;15.89;8.08;;;;;;;;;;365551;145;866815;-61
2021/10/09 02:59:24;;;;;;;14.41;8.11;;;;;;;;;;366896;144;865719;-61
2021/10/09 03:00:27;;;;;;;16.88;8.32;;;;;;;;;;369117;145;858943;-61
2021/10/09 03:01:28;;;;;;;13.74;8.06;;;;;;;;;;367653;145;857214;-61
2021/10/09 03:02:30;;;;;;;15.66;8.73;;;;;;;;;;367202;145;865120;-61
2021/10/09 03:03:32;;;;;;;14.64;8.66;;;;;;;;;;370072;144;865327;-61
2021/10/09 03:04:33;;;;;;;14.95;8.41;;;;;;;;;;366728;145;865094;-61
2021/10/09 03:05:35;;;;;;;14.21;7.79;;;;;;;;;;368070;145;865708;-61
2021/10/09 03:06:37;;;;;;;15.57;8.81;;;;;;;;;;369856;144;865670;-63
2021/10/09 03:07:39;;;;;;;15.87;8.10;;;;;;;;;;366109;145;857519;-61
2021/10/09 03:08:41;;;;;;;12.23;7.83;;;;;;;;;;364779;145;865087;-61
2021/10/09 03:09:42;;;;;;;12.71;7.51;;;;;;;;;;369152;145;857765;-62
2021/10/09 03:10:45;;;;;;;15.64;7.94;;;;;;;;;;367660;144;857363;-64
2021/10/09 03:11:47;;;;;;;16.21;8.53;;;;;;;;;;370032;145;857870;-62
2021/10/09 03:12:48;;;;;;;15.08;8.29;;;;;;;;;;368650;144;868451;-63
2021/10/09 03:13:50;;;;;;;19.43;8.12;;;;;;;;;;368268;144;864968;-62
2021/10/09 03:14:51;;;;;;;16.89;8.61;;;;;;;;;;365850;145;857531;-62
2021/10/09 03:15:53;;;;;;;15.42;8.85;;;;;;;;;;367859;145;859213;-62
2021/10/09 03:16:55;;;;;;;12.35;7.76;;;;;;;;;;368895;144;866911;-62
2021/10/09 03:17:57;;;;;;;13.77;8.14;;;;;;;;;;367468;145;857320;-62
2021/10/09 03:18:58;;;;;;;11.37;7.66;;;;;;;;;;365035;145;865525;-62
2021/10/09 03:20:00;;;;;;;13.33;7.94;;;;;;;;;;367882;145;857461;-62
2021/10/09 03:21:01;;;;;;;13.94;8.44;;;;;;;;;;368943;144;857414;-62
2021/10/09 03:22:03;;;;;;;15.06;8.32;;;;;;;;;;364197;145;865059;-62
2021/10/09 03:23:05;;;;;;;20.85;8.66;;;;;;;;;;367103;145;858519;-62
2021/10/09 03:24:06;;;;;;;12.24;8.16;;;;;;;;;;366816;144;865053;-62
2021/10/09 03:25:09;;;;;;;14.56;7.68;;;;;;;;;;365716;145;857585;-63
2021/10/09 03:26:12;;;;;;;14.14;7.88;;;;;;;;;;367608;145;859661;-62
2021/10/09 03:27:14;;;;;;;12.56;7.66;;;;;;;;;;368530;144;857902;-62
2021/10/09 03:28:15;;;;;;;14.30;8.35;;;;;;;;;;366575;144;865101;-62
2021/10/09 03:29:17;;;;;;;14.06;8.34;;;;;;;;;;369136;145;865159;-62
2021/10/09 03:30:19;;;;;;;14.34;8.81;;;;;;;;;;366986;145;865771;-62
2021/10/09 03:31:21;;;;;;;13.66;7.72;;;;;;;;;;366766;144;857896;-62
2021/10/09 03:32:22;;;;;;;13.56;8.36;;;;;;;;;;366172;145;857444;-62
2021/10/09 03:33:24;;;;;;;13.85;7.61;;;;;;;;;;365366;145;857353;-62
2021/10/09 03:34:32;;;;;;;13.85;8.83;;;;;;;;;;368555;144;859046;-62
2021/10/09 03:35:29;;;;;;;16.49;8.31;;;;;;;;;;354578;151;860247;-61
2021/10/09 03:36:32;;;;;;;15.75;8.43;;;;;;;;;;354388;148;858110;-61
2021/10/09 03:37:34;;;;;;;17.14;7.92;;;;;;;;;;354790;149;859274;-61
2021/10/09 03:38:37;;;;;;;14.55;7.65;;;;;;;;;;357477;148;865073;-63
2021/10/09 03:39:42;;;;;;;18.71;8.63;;;;;;;;;;358957;148;857339;-61
2021/10/09 03:40:46;;;;;;;19.39;8.56;;;;;;;;;;356756;149;857218;-62
2021/10/09 03:41:51;;;;;;;14.10;8.46;;;;;;;;;;357846;148;865445;-61
2021/10/09 03:43:50;;;;;;;14.74;8.11;;;;;;;;;;357539;150;865879;-61
2021/10/09 03:44:02;;;;;;;15.70;8.26;;;;;;;;;;332667;150;857664;-61
2021/10/09 03:45:16;;;;;;;18.50;8.83;;;;;;;;;;356804;148;857427;-61
2021/10/09 03:46:23;;;;;;;13.51;8.34;;;;;;;;;;359802;149;865260;-63
2021/10/09 03:47:25;;;;;;;15.33;8.83;;;;;;;;;;358839;148;857424;-61
2021/10/09 03:48:51;;;;;;;16.91;7.94;;;;;;;;;;357713;148;856313;-61
2021/10/09 03:49:58;;;;;;;13.59;8.21;;;;;;;;;;356685;149;857535;-62
2021/10/09 03:53:23;;;;;;;14.22;7.73;;;;;;;;;;356402;149;857503;-61
2021/10/09 03:54:24;;;;;;;17.41;7.78;;;;;;;;;;357138;150;857800;-61
2021/10/09 03:55:26;;;;;;;13.72;8.62;;;;;;;;;;358371;147;866999;-61
2021/10/09 03:56:28;;;;;;;18.51;8.37;;;;;;;;;;359741;149;866663;-61
2021/10/09 03:57:30;;;;;;;12.37;8.26;;;;;;;;;;359195;149;857309;-61
2021/10/09 03:58:32;;;;;;;17.71;8.61;;;;;;;;;;358965;149;864720;-61
2021/10/09 03:59:33;;;;;;;13.34;7.76;;;;;;;;;;353307;149;857879;-61
2021/10/09 04:00:36;;;;;;;13.21;8.09;;;;;;;;;;358442;148;857377;-62
2021/10/09 04:01:39;;;;;;;14.59;8.30;;;;;;;;;;355039;148;857413;-61
2021/10/09 04:02:41;;;;;;;16.27;8.19;;;;;;;;;;355295;148;860177;-61
2021/10/09 04:03:42;;;;;;;13.69;7.99;;;;;;;;;;359274;148;865178;-70
2021/10/09 04:04:44;;;;;;;17.02;9.18;;;;;;;;;;363551;148;857462;-71
2021/10/09 04:05:46;;;;;;;17.03;8.27;;;;;;;;;;362732;147;857608;-70
2021/10/09 04:06:47;;;;;;;13.21;7.97;;;;;;;;;;361258;146;859472;-70
2021/10/09 04:07:49;;;;;;;14.88;8.31;;;;;;;;;;362430;148;857159;-71
2021/10/09 04:08:51;;;;;;;13.00;8.11;;;;;;;;;;360681;148;857318;-71
2021/10/09 04:09:52;;;;;;;13.40;7.95;;;;;;;;;;361440;146;857140;-72
2021/10/09 04:10:54;;;;;;;13.83;7.89;;;;;;;;;;361093;148;857370;-71
2021/10/09 04:17:32;;;;;;;13.25;7.74;;;;;;;2.58;57.40;101713.59;380405;139;869303;-58
2021/10/09 04:18:34;;;;;;;12.75;8.04;;;;;;;2.45;57.42;101719.72;366478;142;857270;-57
2021/10/09 04:19:35;;;;;;;18.03;8.06;;;;;;;2.42;57.62;101724.66;369203;141;857862;-63
2021/10/09 04:20:38;;;;;;;14.10;8.47;;;;;;;2.39;57.69;101727.95;370758;142;865969;-62
2021/10/09 04:21:40;;;;;;;19.06;7.82;;;;;;;2.34;57.77;101730.24;371324;142;857305;-61
2021/10/09 04:22:42;;;;;;;19.55;9.41;;;;;;;2.32;57.85;101726.72;370272;141;865106;-60
2021/10/09 04:23:43;;;;;;;14.05;8.01;;;;;;;2.32;57.87;101726.72;370699;142;859079;-61
2021/10/09 04:24:45;;;;;;;18.40;8.65;;;;;;;2.32;57.94;101733.53;371425;142;865947;-59
2021/10/09 04:25:47;;;;;;;19.51;8.56;;;;;;;2.29;57.97;101733.36;369203;142;866781;-59
2021/10/09 04:26:49;;;;;;;17.71;8.47;;;;;;;2.25;58.07;101732.30;370736;141;866782;-61
2021/10/09 04:27:51;;;;;;;16.27;8.17;;;;;;;2.23;58.14;101731.33;373185;142;857325;-60
2021/10/09 04:28:52;;;;;;;14.66;8.54;;;;;;;2.22;58.25;101732.13;372360;144;857138;-62
2021/10/09 04:29:54;;;;;;;15.18;8.19;;;;;;;2.20;58.31;101736.28;371632;141;865300;-68
2021/10/09 04:30:56;;;;;;;20.91;8.92;;;;;;;2.23;58.42;101740.69;371424;141;865763;-65
2021/10/09 04:31:59;;;;;;;18.85;8.43;;;;;;;2.22;58.44;101744.05;371013;141;857851;-61
2021/10/09 04:33:01;;;;;;;20.77;8.67;;;;;;;2.20;58.46;101736.28;371904;141;859089;-61
2021/10/09 04:34:03;;;;;;;14.26;8.32;;;;;;;2.13;58.63;101735.08;373004;141;859822;-60
2021/10/09 04:35:05;;;;;;;15.22;8.93;;;;;;;2.13;58.68;101740.19;369482;144;866406;-60
2021/10/09 04:36:08;;;;;;;15.34;8.72;;;;;;;2.14;58.73;101738.49;365514;147;867001;-61
2021/10/09 04:37:10;;;;;;;14.15;8.79;;;;;;;2.15;58.71;101737.70;362163;145;866026;-60
2021/10/09 04:38:12;;;;;;;14.36;8.77;;;;;;;2.15;58.70;101741.15;361382;144;858243;-60
2021/10/09 04:39:13;;;;;;;15.63;8.42;;;;;;;2.19;58.75;101739.63;360127;144;857406;-61
2021/10/09 04:40:16;;;;;;;18.27;9.53;;;;;;;2.23;58.69;101743.25;362385;144;865127;-60
2021/10/09 04:41:17;;;;;;;14.76;8.39;;;;;;;2.26;58.62;101745.97;361142;146;857633;-61
2021/10/09 04:42:19;;;;;;;15.33;8.64;;;;;;;2.30;58.53;101747.90;363607;144;866713;-60
2021/10/09 04:43:21;;;;;;;15.01;9.10;;;;;;;2.32;58.53;101743.75;363147;145;866815;-60
2021/10/09 04:44:23;;;;;;;20.08;9.65;;;;;;;2.34;58.47;101744.72;362086;145;857346;-62
2021/10/09 04:45:25;;;;;;;17.36;9.33;;;;;;;2.37;58.38;101743.98;360676;146;865601;-63
2021/10/09 04:46:28;;;;;;;15.37;8.73;;;;;;;2.39;58.38;101745.84;362204;147;866543;-62
2021/10/09 04:47:29;;;;;;;14.94;9.00;;;;;;;2.42;58.32;101746.02;362113;144;859002;-65
2021/10/09 04:48:31;;;;;;;14.46;8.91;;;;;;;2.45;58.32;101740.17;357878;147;857283;-61
2021/10/09 04:49:33;;;;;;;13.69;8.21;;;;;;;2.46;58.21;101752.16;364705;144;865229;-64
2021/10/09 04:50:36;;;;;;;17.03;8.63;;;;;;;2.48;58.23;101748.00;362380;144;865223;-62
2021/10/09 04:51:37;;;;;;;17.66;9.48;;;;;;;2.53;58.22;101745.71;363899;144;865938;-61
2021/10/09 04:52:39;;;;;;;19.29;8.54;;;;;;;2.58;58.10;101741.72;360264;145;865835;-62
2021/10/09 04:53:41;;;;;;;20.10;9.40;;;;;;;2.61;57.89;101744.45;360437;144;866278;-62
2021/10/09 04:54:42;;;;;;;17.56;9.53;;;;;;;2.61;57.84;101736.77;361341;145;865176;-61
2021/10/09 04:55:44;;;;;;;21.28;8.89;;;;;;;2.63;57.92;101738.59;361399;147;865432;-61
2021/10/09 04:56:46;;;;;;;14.73;8.81;;;;;;;2.69;57.81;101743.17;362907;147;866799;-63
2021/10/09 04:57:48;;;;;;;15.20;8.65;;;;;;;2.74;57.70;101745.99;362516;145;857338;-61
2021/10/09 04:58:50;;;;;;;14.31;8.63;;;;;;;2.77;57.58;101744.46;363557;147;859062;-60
2021/10/09 04:59:53;;;;;;;19.90;9.56;;;;;;;2.81;57.38;101739.50;362055;147;857732;-62
2021/10/09 05:00:55;;;;;;;19.49;8.72;;;;;;;2.84;57.22;101740.56;363010;147;866776;-61
2021/10/09 05:01:57;;;;;;;17.63;8.83;;;;;;;2.86;57.13;101744.08;361281;146;857508;-61
2021/10/09 05:02:59;;;;;;;17.31;8.69;;;;;;;2.88;56.91;101746.70;364399;144;857743;-59
2021/10/09 05:04:01;;;;;;;13.92;8.05;;;;;;;2.89;56.80;101739.13;353167;148;865033;-60
2021/10/09 05:05:03;;;;;;;14.85;8.46;;;;;;;2.88;56.72;101736.47;355278;147;858211;-61
2021/10/09 05:06:05;;;;;;;21.59;9.22;;;;;;;2.91;56.73;101740.09;364083;144;864924;-62
2021/10/09 05:07:07;;;;;;;18.04;8.47;;;;;;;2.94;56.72;101741.91;362803;144;866744;-60
2021/10/09 05:08:09;;;;;;;15.05;8.24;;;;;;;2.98;56.55;101741.27;362667;145;865333;-60
2021/10/09 05:09:10;;;;;;;17.47;8.39;;;;;;;3.00;56.53;101744.78;362142;146;866872;-61
2021/10/09 05:10:13;;;;;;;28.35;9.31;;;;;;;3.03;56.40;101742.38;361322;145;857444;-61
2021/10/09 05:11:18;;;;;;;21.25;8.39;;;;;;;3.09;56.42;101738.37;362962;145;858161;-59
2021/10/09 05:12:20;;;;;;;22.51;9.88;;;;;;;3.11;56.24;101742.80;360168;146;857417;-63
2021/10/09 05:13:22;;;;;;;24.96;8.87;;;;;;;3.18;55.84;101746.53;361376;147;857660;-61
2021/10/09 05:14:24;;;;;;;17.11;8.77;;;;;;;3.22;55.71;101745.92;366243;147;858923;-66
2021/10/09 05:15:25;;;;;;;20.59;9.32;;;;;;;3.26;55.59;101741.82;362588;144;866001;-61
2021/10/09 05:16:29;;;;;;;20.07;8.43;;;;;;;3.29;55.50;101745.44;360516;146;866043;-61
2021/10/09 05:17:30;;;;;;;20.42;8.75;;;;;;;3.32;55.27;101742.13;361760;145;857501;-60
2021/10/09 05:18:32;;;;;;;15.77;8.07;;;;;;;3.37;55.40;101745.80;359494;147;858948;-60
2021/10/09 05:19:34;;;;;;;21.56;9.23;;;;;;;3.44;55.46;101745.31;359057;147;866090;-60
2021/10/09 05:20:36;;;;;;;19.61;8.65;;;;;;;3.52;54.94;101740.59;357995;148;866102;-60
2021/10/09 05:21:38;;;;;;;17.63;8.67;;;;;;;3.54;54.72;101746.66;357209;146;859156;-60
2021/10/09 05:22:39;;;;;;;17.36;8.90;;;;;;;3.58;54.63;101743.45;357151;147;857397;-63
2021/10/09 05:37:14;;;;;;;18.15;7.90;;;;;;;4.23;52.88;101741.42;374060;142;867920;-59
2021/10/09 05:38:16;;;;;;;15.31;8.53;;;;;;;4.20;52.95;101742.98;363870;146;859429;-59
2021/10/09 05:39:17;;;;;;;18.00;9.06;;;;;;;4.25;52.85;101749.20;356980;147;857455;-60
2021/10/09 05:40:20;;;;;;;18.70;8.41;;;;;;;4.32;52.76;101746.13;360024;145;857188;-60
2021/10/09 05:41:22;;;;;;;16.81;8.71;;;;;;;4.38;52.62;101741.27;362323;146;857691;-62
2021/10/09 05:42:24;;;;;;;21.56;8.53;;;;;;;4.48;53.01;101750.29;362479;146;856824;-60
2021/10/09 05:43:26;;;;;;;16.38;8.44;;;;;;;4.55;51.86;101745.44;362191;144;864597;-61
2021/10/09 05:44:28;;;;;;;18.27;8.55;;;;;;;4.58;51.78;101741.31;362243;144;864606;-62
2021/10/09 05:45:30;;;;;;;13.83;8.68;;;;;;;4.61;51.82;101744.02;364468;146;858783;-59
2021/10/09 05:46:34;;;;;;;16.76;8.51;;;;;;;4.68;52.00;101747.75;361250;144;865342;-60
2021/10/09 05:47:38;;;;;;;20.01;8.89;;;;;;;4.75;51.89;101743.76;363926;144;866739;-60
2021/10/09 05:48:40;;;;;;;16.56;8.74;;;;;;;4.81;51.72;101747.49;355856;147;857322;-60
2021/10/09 05:49:42;;;;;;;16.60;9.01;;;;;;;4.86;51.50;101745.14;363471;144;865402;-60
2021/10/09 05:50:58;;;;;;;20.14;9.06;;;;;;;4.91;51.33;101741.09;362704;144;860052;-60
2021/10/09 05:52:12;;;;;;;17.13;8.95;;;;;;;4.95;51.12;101745.55;361603;144;857248;-60
2021/10/09 05:54:36;;;;;;;24.73;10.46;;;;;;;5.00;50.53;101737.17;363025;144;857254;-59
2021/10/09 05:55:40;;;;;;;20.48;9.41;;;;;;;5.00;50.73;101738.03;361409;144;857800;-60
2021/10/09 05:56:54;;;;;;;16.84;8.37;;;;;;;5.04;50.73;101745.06;364927;145;864008;-61
2021/10/09 05:59:30;;;;;;;21.23;7.78;;;;;;;5.17;50.23;101743.02;340344;154;856537;-60
2021/10/09 06:25:40;;;;;;;16.51;7.28;;;;;;;;;;361317;145;856428;-60
2021/10/09 06:43:16;;;;;;;18.17;8.09;;;;;;;;;;360492;146;856164;-61
2021/10/09 06:44:28;;;;;;;19.33;8.12;;;;;;;;;;363313;146;864472;-61
2021/10/09 06:46:51;;;;;;;17.34;7.62;;;;;;;;;;361045;145;856548;-61
2021/10/09 06:50:19;;;;;;;21.52;8.49;;;;;;;;;;361025;145;856929;-61
2021/10/09 06:59:31;;;;;;;19.24;7.79;;;;;;;;;;364911;147;856957;-61
2021/10/09 07:00:31;;;;;;;16.93;6.73;;;;;;;;;;361296;145;856533;-61
2021/10/09 07:01:32;;;;;;;22.33;7.25;;;;;;;;;;363241;145;856335;-61
2021/10/09 07:02:38;;;;;;;24.14;7.38;;;;;;;;;;361292;147;863740;-61
2021/10/09 07:03:39;;;;;;;21.96;7.44;;;;;;;;;;361818;146;863713;-62
2021/10/09 07:04:41;;;;;;;21.19;7.46;;;;;;;;;;361329;145;856433;-61
2021/10/09 07:05:43;;;;;;;22.58;7.49;;;;;;;;;;359307;147;863980;-61
2021/10/09 07:06:45;;;;;;;22.76;8.14;;;;;;;;;;360613;145;863860;-61
2021/10/09 07:07:52;;;;;;;24.65;7.00;;;;;;;;;;361828;145;863580;-60
2021/10/09 07:08:53;;;;;;;20.11;7.48;;;;;;;;;;362362;145;856387;-61
2021/10/09 07:09:55;;;;;;;15.61;7.41;;;;;;;;;;364148;145;856375;-60
2021/10/09 07:10:57;;;;;;;18.19;6.88;;;;;;;;;;361298;145;863846;-62
2021/10/09 07:11:59;;;;;;;22.55;7.09;;;;;;;;;;362606;145;863944;-63
2021/10/09 07:13:00;;;;;;;18.87;7.11;;;;;;;;;;351663;150;863913;-61
2021/10/09 07:14:05;;;;;;;23.35;7.02;;;;;;;;;;351672;151;856378;-61
2021/10/09 07:15:06;;;;;;;19.17;6.70;;;;;;;;;;349865;150;864069;-61
2021/10/09 07:16:09;;;;;;;19.53;7.43;;;;;;;;;;353812;148;856791;-62
2021/10/09 07:17:10;;;;;;;17.37;7.21;;;;;;;;;;347367;154;856784;-61
2021/10/09 07:18:13;;;;;;;13.94;6.20;;;;;;;;;;352462;150;856434;-62
2021/10/09 07:19:15;;;;;;;15.51;6.70;;;;;;;;;;353879;150;864041;-61
2021/10/09 07:20:19;;;;;;;12.95;6.58;;;;;;;;;;352695;149;864054;-62
2021/10/09 07:21:20;;;;;;;28.41;7.16;;;;;;;;;;354837;149;856178;-60
2021/10/09 07:22:23;;;;;;;18.31;6.31;;;;;;;;;;353267;150;856719;-61
2021/10/09 07:23:24;;;;;;;20.11;6.47;;;;;;;;;;353504;148;863867;-62
2021/10/09 07:24:26;;;;;;;13.80;5.96;;;;;;;;;;353716;148;864709;-62
2021/10/09 07:25:28;;;;;;;16.11;6.53;;;;;;;;;;352220;150;864344;-63
2021/10/09 07:26:29;;;;;;;22.65;6.93;;;;;;;;;;355669;149;856167;-60
2021/10/09 07:27:31;;;;;;;22.38;7.01;;;;;;;;;;353279;150;863878;-58
2021/10/09 07:28:33;;;;;;;14.39;5.66;;;;;;;;;;352555;150;857431;-59
2021/10/09 07:29:34;;;;;;;21.55;6.37;;;;;;;;;;352181;149;863992;-59
2021/10/09 07:30:37;;;;;;;16.69;5.93;;;;;;;;;;352069;150;856216;-60
2021/10/09 07:31:39;;;;;;;13.96;6.32;;;;;;;;;;355672;149;856286;-59
2021/10/09 07:32:42;;;;;;;21.10;5.93;;;;;;;;;;354055;150;864182;-60
2021/10/09 07:33:44;;;;;;;15.48;5.69;;;;;;;;;;355990;150;856159;-59
2021/10/09 07:34:45;;;;;;;16.28;6.07;;;;;;;;;;352179;150;856507;-60
2021/10/09 07:35:47;;;;;;;20.34;5.89;;;;;;;;;;352410;150;862440;-60
2021/10/09 07:36:49;;;;;;;12.85;5.81;;;;;;;;;;352674;149;856558;-59
2021/10/09 07:37:51;;;;;;;15.59;6.11;;;;;;;;;;356146;150;856531;-59
2021/10/09 07:38:54;;;;;;;12.27;5.67;;;;;;;;;;363123;145;859004;-60
2021/10/09 07:39:56;;;;;;;22.82;6.61;;;;;;;;;;363675;144;856056;-62
2021/10/09 07:40:58;;;;;;;16.11;5.57;;;;;;;;;;362854;144;856124;-63
2021/10/09 07:41:59;;;;;;;19.71;5.69;;;;;;;;;;363367;145;856156;-66